Weather at El Alto International Airport

Public forecast

Using degrees Celsius for public forecast. Weather courtesy of forecast.io.

Current aviation weather report (METAR) for El Alto International Airport

Retrieved 2020/10/26 08:00 UTC (31 minutes ago):

SLLP 260800Z 01005KT 9999 FEW004 SCT200 05/M01 Q1036

Aviation forecast (TAF) for El Alto International Airport

Retrieved 2020/10/26 06:17 UTC (2 hours ago):

TAF SLLP 260410Z 2606/2706 07005KT 4000E VCFG FEW003 TX16/2620Z TN02/2610Z BECMG 2612/2614 16010KT 9999 NSW SCT015 TEMPO 2618/2622 30010G20KT FEW023CB